sensor_id;sensor_type;location;lat;lon;timestamp;P1;durP1;ratioP1;P2;durP2;ratioP2
19396;SDS011;9834;48.076;11.878;2023-04-25T00:00:31;5.30;;;3.67;;
19396;SDS011;9834;48.076;11.878;2023-04-25T00:03:01;8.30;;;5.33;;
19396;SDS011;9834;48.076;11.878;2023-04-25T00:05:31;5.77;;;4.27;;
19396;SDS011;9834;48.076;11.878;2023-04-25T00:08:01;5.13;;;3.50;;
19396;SDS011;9834;48.076;11.878;2023-04-25T00:10:29;3.50;;;2.13;;
19396;SDS011;9834;48.076;11.878;2023-04-25T00:12:57;4.40;;;2.30;;
19396;SDS011;9834;48.076;11.878;2023-04-25T00:15:27;1.67;;;1.53;;
19396;SDS011;9834;48.076;11.878;2023-04-25T00:17:55;2.17;;;1.90;;
19396;SDS011;9834;48.076;11.878;2023-04-25T00:20:23;2.93;;;1.93;;
19396;SDS011;9834;48.076;11.878;2023-04-25T00:22:52;1.87;;;1.67;;
19396;SDS011;9834;48.076;11.878;2023-04-25T00:25:20;1.40;;;1.30;;
19396;SDS011;9834;48.076;11.878;2023-04-25T00:27:49;1.80;;;1.67;;
19396;SDS011;9834;48.076;11.878;2023-04-25T00:30:16;2.10;;;1.90;;
19396;SDS011;9834;48.076;11.878;2023-04-25T00:32:44;1.70;;;1.60;;
19396;SDS011;9834;48.076;11.878;2023-04-25T00:35:11;1.60;;;1.50;;
19396;SDS011;9834;48.076;11.878;2023-04-25T00:37:41;1.70;;;1.47;;
19396;SDS011;9834;48.076;11.878;2023-04-25T00:40:10;1.80;;;1.57;;
19396;SDS011;9834;48.076;11.878;2023-04-25T00:42:37;2.00;;;1.77;;
19396;SDS011;9834;48.076;11.878;2023-04-25T00:45:06;1.87;;;1.43;;
19396;SDS011;9834;48.076;11.878;2023-04-25T00:47:35;1.40;;;1.30;;
19396;SDS011;9834;48.076;11.878;2023-04-25T00:50:04;8.10;;;2.00;;
19396;SDS011;9834;48.076;11.878;2023-04-25T00:52:32;2.03;;;1.50;;
19396;SDS011;9834;48.076;11.878;2023-04-25T00:55:03;2.10;;;1.63;;
19396;SDS011;9834;48.076;11.878;2023-04-25T00:57:33;1.50;;;1.37;;
19396;SDS011;9834;48.076;11.878;2023-04-25T01:00:04;2.67;;;1.83;;
19396;SDS011;9834;48.076;11.878;2023-04-25T01:02:34;1.00;;;1.00;;
19396;SDS011;9834;48.076;11.878;2023-04-25T01:05:03;1.83;;;1.50;;
19396;SDS011;9834;48.076;11.878;2023-04-25T01:07:31;1.53;;;1.43;;
19396;SDS011;9834;48.076;11.878;2023-04-25T01:09:58;1.40;;;1.13;;
19396;SDS011;9834;48.076;11.878;2023-04-25T01:12:29;2.37;;;1.10;;
19396;SDS011;9834;48.076;11.878;2023-04-25T01:14:58;0.90;;;0.90;;
19396;SDS011;9834;48.076;11.878;2023-04-25T01:17:26;2.47;;;1.20;;
19396;SDS011;9834;48.076;11.878;2023-04-25T01:19:54;1.90;;;1.20;;
19396;SDS011;9834;48.076;11.878;2023-04-25T01:22:23;1.50;;;1.37;;
19396;SDS011;9834;48.076;11.878;2023-04-25T01:24:51;0.93;;;0.83;;
19396;SDS011;9834;48.076;11.878;2023-04-25T01:27:19;1.80;;;1.53;;
19396;SDS011;9834;48.076;11.878;2023-04-25T01:29:48;1.70;;;1.60;;
19396;SDS011;9834;48.076;11.878;2023-04-25T01:32:16;2.80;;;1.47;;
19396;SDS011;9834;48.076;11.878;2023-04-25T01:34:44;1.40;;;1.30;;
19396;SDS011;9834;48.076;11.878;2023-04-25T01:37:12;1.63;;;1.50;;
19396;SDS011;9834;48.076;11.878;2023-04-25T01:39:41;1.57;;;1.47;;
19396;SDS011;9834;48.076;11.878;2023-04-25T01:42:09;1.30;;;1.20;;
19396;SDS011;9834;48.076;11.878;2023-04-25T01:44:37;1.07;;;1.07;;
19396;SDS011;9834;48.076;11.878;2023-04-25T01:47:04;1.57;;;1.37;;
19396;SDS011;9834;48.076;11.878;2023-04-25T01:49:37;1.63;;;1.30;;
19396;SDS011;9834;48.076;11.878;2023-04-25T01:52:05;7.23;;;1.50;;
19396;SDS011;9834;48.076;11.878;2023-04-25T01:54:32;1.23;;;1.13;;
19396;SDS011;9834;48.076;11.878;2023-04-25T01:57:01;1.03;;;1.03;;
19396;SDS011;9834;48.076;11.878;2023-04-25T01:59:29;1.47;;;1.20;;
19396;SDS011;9834;48.076;11.878;2023-04-25T02:02:01;1.30;;;1.07;;
19396;SDS011;9834;48.076;11.878;2023-04-25T02:04:29;0.83;;;0.83;;
19396;SDS011;9834;48.076;11.878;2023-04-25T02:07:00;1.13;;;1.13;;
19396;SDS011;9834;48.076;11.878;2023-04-25T02:09:28;2.90;;;1.30;;
19396;SDS011;9834;48.076;11.878;2023-04-25T02:11:56;1.23;;;1.10;;
19396;SDS011;9834;48.076;11.878;2023-04-25T02:14:26;0.80;;;0.80;;
19396;SDS011;9834;48.076;11.878;2023-04-25T02:16:54;1.90;;;1.47;;
19396;SDS011;9834;48.076;11.878;2023-04-25T02:19:22;1.10;;;0.80;;
19396;SDS011;9834;48.076;11.878;2023-04-25T02:21:49;1.27;;;1.17;;
19396;SDS011;9834;48.076;11.878;2023-04-25T02:24:16;1.33;;;1.23;;
19396;SDS011;9834;48.076;11.878;2023-04-25T02:26:46;1.77;;;1.50;;
19396;SDS011;9834;48.076;11.878;2023-04-25T02:29:14;2.13;;;1.23;;
19396;SDS011;9834;48.076;11.878;2023-04-25T02:31:43;1.83;;;1.20;;
19396;SDS011;9834;48.076;11.878;2023-04-25T02:34:11;1.10;;;1.10;;
19396;SDS011;9834;48.076;11.878;2023-04-25T02:36:38;1.00;;;1.00;;
19396;SDS011;9834;48.076;11.878;2023-04-25T02:39:11;1.23;;;1.10;;
19396;SDS011;9834;48.076;11.878;2023-04-25T02:41:39;1.53;;;1.30;;
19396;SDS011;9834;48.076;11.878;2023-04-25T02:44:06;1.97;;;1.60;;
19396;SDS011;9834;48.076;11.878;2023-04-25T02:46:33;2.50;;;0.80;;
19396;SDS011;9834;48.076;11.878;2023-04-25T02:49:02;1.67;;;1.27;;
19396;SDS011;9834;48.076;11.878;2023-04-25T02:51:30;2.10;;;1.40;;
19396;SDS011;9834;48.076;11.878;2023-04-25T02:53:58;1.40;;;1.30;;
19396;SDS011;9834;48.076;11.878;2023-04-25T02:56:26;1.60;;;1.50;;
19396;SDS011;9834;48.076;11.878;2023-04-25T02:58:53;1.57;;;1.33;;
19396;SDS011;9834;48.076;11.878;2023-04-25T03:01:22;1.50;;;1.20;;
19396;SDS011;9834;48.076;11.878;2023-04-25T03:03:49;1.37;;;1.27;;
19396;SDS011;9834;48.076;11.878;2023-04-25T03:06:21;1.47;;;1.37;;
19396;SDS011;9834;48.076;11.878;2023-04-25T03:08:53;2.00;;;1.80;;
19396;SDS011;9834;48.076;11.878;2023-04-25T03:11:26;2.50;;;1.60;;
19396;SDS011;9834;48.076;11.878;2023-04-25T03:13:56;2.60;;;1.63;;
19396;SDS011;9834;48.076;11.878;2023-04-25T03:16:27;1.53;;;1.43;;
19396;SDS011;9834;48.076;11.878;2023-04-25T03:18:56;1.90;;;1.63;;
19396;SDS011;9834;48.076;11.878;2023-04-25T03:21:25;1.80;;;1.70;;
19396;SDS011;9834;48.076;11.878;2023-04-25T03:23:52;1.57;;;1.47;;
19396;SDS011;9834;48.076;11.878;2023-04-25T03:26:28;1.47;;;1.20;;
19396;SDS011;9834;48.076;11.878;2023-04-25T03:28:55;2.23;;;1.47;;
19396;SDS011;9834;48.076;11.878;2023-04-25T03:31:25;2.37;;;1.50;;
19396;SDS011;9834;48.076;11.878;2023-04-25T03:33:52;2.77;;;1.33;;
19396;SDS011;9834;48.076;11.878;2023-04-25T03:36:20;1.77;;;1.43;;
19396;SDS011;9834;48.076;11.878;2023-04-25T03:38:49;1.23;;;1.13;;
19396;SDS011;9834;48.076;11.878;2023-04-25T03:41:17;4.23;;;1.30;;
19396;SDS011;9834;48.076;11.878;2023-04-25T03:43:45;1.43;;;1.33;;
19396;SDS011;9834;48.076;11.878;2023-04-25T03:46:13;2.70;;;1.43;;
19396;SDS011;9834;48.076;11.878;2023-04-25T03:48:40;1.63;;;1.37;;
19396;SDS011;9834;48.076;11.878;2023-04-25T03:57:53;1.63;;;1.17;;
19396;SDS011;9834;48.076;11.878;2023-04-25T04:00:23;0.80;;;0.80;;
19396;SDS011;9834;48.076;11.878;2023-04-25T04:02:50;3.70;;;1.97;;
19396;SDS011;9834;48.076;11.878;2023-04-25T04:05:18;2.80;;;1.60;;
19396;SDS011;9834;48.076;11.878;2023-04-25T04:07:48;1.07;;;0.67;;
19396;SDS011;9834;48.076;11.878;2023-04-25T04:10:16;1.80;;;1.63;;
19396;SDS011;9834;48.076;11.878;2023-04-25T04:12:45;2.33;;;1.10;;
19396;SDS011;9834;48.076;11.878;2023-04-25T04:15:14;4.00;;;1.97;;
19396;SDS011;9834;48.076;11.878;2023-04-25T04:17:42;1.70;;;1.60;;
19396;SDS011;9834;48.076;11.878;2023-04-25T04:20:10;2.40;;;1.40;;
19396;SDS011;9834;48.076;11.878;2023-04-25T04:22:43;2.00;;;1.90;;
19396;SDS011;9834;48.076;11.878;2023-04-25T04:25:11;8.27;;;2.10;;
19396;SDS011;9834;48.076;11.878;2023-04-25T04:27:38;1.83;;;1.73;;
19396;SDS011;9834;48.076;11.878;2023-04-25T04:30:12;1.90;;;1.70;;
19396;SDS011;9834;48.076;11.878;2023-04-25T04:32:42;1.47;;;1.37;;
19396;SDS011;9834;48.076;11.878;2023-04-25T04:35:14;3.30;;;1.70;;
19396;SDS011;9834;48.076;11.878;2023-04-25T04:37:41;1.53;;;1.43;;
19396;SDS011;9834;48.076;11.878;2023-04-25T04:40:11;1.93;;;1.77;;
19396;SDS011;9834;48.076;11.878;2023-04-25T04:42:40;2.87;;;2.20;;
19396;SDS011;9834;48.076;11.878;2023-04-25T04:45:12;1.13;;;1.13;;
19396;SDS011;9834;48.076;11.878;2023-04-25T04:47:39;2.40;;;1.60;;
19396;SDS011;9834;48.076;11.878;2023-04-25T04:50:08;2.00;;;1.83;;
19396;SDS011;9834;48.076;11.878;2023-04-25T04:52:36;1.53;;;0.97;;
19396;SDS011;9834;48.076;11.878;2023-04-25T04:55:08;2.10;;;1.47;;
19396;SDS011;9834;48.076;11.878;2023-04-25T04:57:35;2.33;;;1.47;;
19396;SDS011;9834;48.076;11.878;2023-04-25T05:00:04;2.63;;;1.93;;
19396;SDS011;9834;48.076;11.878;2023-04-25T05:02:38;1.57;;;1.47;;
19396;SDS011;9834;48.076;11.878;2023-04-25T05:05:06;1.43;;;1.33;;
19396;SDS011;9834;48.076;11.878;2023-04-25T05:07:34;1.47;;;1.37;;
19396;SDS011;9834;48.076;11.878;2023-04-25T05:10:02;3.10;;;1.80;;
19396;SDS011;9834;48.076;11.878;2023-04-25T05:12:30;3.93;;;1.70;;
19396;SDS011;9834;48.076;11.878;2023-04-25T05:15:02;2.00;;;1.60;;
19396;SDS011;9834;48.076;11.878;2023-04-25T05:17:30;2.53;;;2.33;;
19396;SDS011;9834;48.076;11.878;2023-04-25T05:19:59;2.70;;;2.03;;
19396;SDS011;9834;48.076;11.878;2023-04-25T05:22:31;1.60;;;1.50;;
19396;SDS011;9834;48.076;11.878;2023-04-25T05:25:00;4.73;;;1.47;;
19396;SDS011;9834;48.076;11.878;2023-04-25T05:27:54;1.63;;;1.40;;
19396;SDS011;9834;48.076;11.878;2023-04-25T05:34:20;1.50;;;1.40;;
19396;SDS011;9834;48.076;11.878;2023-04-25T05:37:21;1.77;;;1.60;;
19396;SDS011;9834;48.076;11.878;2023-04-25T05:43:34;2.90;;;1.57;;
19396;SDS011;9834;48.076;11.878;2023-04-25T05:46:04;1.90;;;1.67;;
19396;SDS011;9834;48.076;11.878;2023-04-25T05:48:43;1.43;;;1.33;;
19396;SDS011;9834;48.076;11.878;2023-04-25T05:51:11;2.90;;;2.10;;
19396;SDS011;9834;48.076;11.878;2023-04-25T05:53:40;7.33;;;1.33;;
19396;SDS011;9834;48.076;11.878;2023-04-25T05:56:07;2.07;;;1.60;;
19396;SDS011;9834;48.076;11.878;2023-04-25T05:58:38;1.30;;;1.20;;
19396;SDS011;9834;48.076;11.878;2023-04-25T06:01:06;2.67;;;1.97;;
19396;SDS011;9834;48.076;11.878;2023-04-25T06:03:34;1.13;;;1.13;;
19396;SDS011;9834;48.076;11.878;2023-04-25T06:06:03;2.23;;;1.63;;
19396;SDS011;9834;48.076;11.878;2023-04-25T06:08:33;2.20;;;1.80;;
19396;SDS011;9834;48.076;11.878;2023-04-25T06:11:02;2.57;;;1.93;;
19396;SDS011;9834;48.076;11.878;2023-04-25T06:13:30;1.90;;;1.57;;
19396;SDS011;9834;48.076;11.878;2023-04-25T06:16:04;3.33;;;1.43;;
19396;SDS011;9834;48.076;11.878;2023-04-25T06:18:35;7.47;;;1.40;;
19396;SDS011;9834;48.076;11.878;2023-04-25T06:21:03;1.20;;;1.00;;
19396;SDS011;9834;48.076;11.878;2023-04-25T06:23:32;4.00;;;1.53;;
19396;SDS011;9834;48.076;11.878;2023-04-25T06:26:00;1.30;;;1.10;;
19396;SDS011;9834;48.076;11.878;2023-04-25T06:28:31;1.33;;;1.23;;
19396;SDS011;9834;48.076;11.878;2023-04-25T06:31:00;1.53;;;1.30;;
19396;SDS011;9834;48.076;11.878;2023-04-25T06:33:27;1.73;;;1.47;;
19396;SDS011;9834;48.076;11.878;2023-04-25T06:36:04;1.53;;;1.20;;
19396;SDS011;9834;48.076;11.878;2023-04-25T06:38:32;1.67;;;1.40;;
19396;SDS011;9834;48.076;11.878;2023-04-25T06:41:00;1.30;;;1.20;;
19396;SDS011;9834;48.076;11.878;2023-04-25T06:43:32;1.10;;;1.03;;
19396;SDS011;9834;48.076;11.878;2023-04-25T06:45:59;2.73;;;1.07;;
19396;SDS011;9834;48.076;11.878;2023-04-25T06:48:33;1.03;;;0.97;;
19396;SDS011;9834;48.076;11.878;2023-04-25T06:51:03;0.73;;;0.73;;
19396;SDS011;9834;48.076;11.878;2023-04-25T06:53:33;0.87;;;0.73;;
19396;SDS011;9834;48.076;11.878;2023-04-25T06:56:00;1.63;;;1.53;;
19396;SDS011;9834;48.076;11.878;2023-04-25T06:58:30;0.80;;;0.80;;
19396;SDS011;9834;48.076;11.878;2023-04-25T07:00:57;1.33;;;1.10;;
19396;SDS011;9834;48.076;11.878;2023-04-25T07:03:33;1.03;;;0.93;;
19396;SDS011;9834;48.076;11.878;2023-04-25T07:06:02;1.30;;;0.97;;
19396;SDS011;9834;48.076;11.878;2023-04-25T07:08:30;2.00;;;1.13;;
19396;SDS011;9834;48.076;11.878;2023-04-25T07:10:58;2.83;;;1.13;;
19396;SDS011;9834;48.076;11.878;2023-04-25T07:13:27;1.30;;;1.20;;
19396;SDS011;9834;48.076;11.878;2023-04-25T07:15:56;1.27;;;1.13;;
19396;SDS011;9834;48.076;11.878;2023-04-25T07:18:24;2.53;;;1.30;;
19396;SDS011;9834;48.076;11.878;2023-04-25T07:20:54;1.60;;;0.90;;
19396;SDS011;9834;48.076;11.878;2023-04-25T07:23:21;0.87;;;0.87;;
19396;SDS011;9834;48.076;11.878;2023-04-25T07:25:50;4.53;;;0.90;;
19396;SDS011;9834;48.076;11.878;2023-04-25T07:28:21;1.00;;;1.00;;
19396;SDS011;9834;48.076;11.878;2023-04-25T07:30:53;1.40;;;1.30;;
19396;SDS011;9834;48.076;11.878;2023-04-25T07:33:21;1.47;;;1.10;;
19396;SDS011;9834;48.076;11.878;2023-04-25T07:35:52;2.00;;;1.30;;
19396;SDS011;9834;48.076;11.878;2023-04-25T07:38:24;1.33;;;1.23;;
19396;SDS011;9834;48.076;11.878;2023-04-25T07:40:53;2.87;;;1.20;;
19396;SDS011;9834;48.076;11.878;2023-04-25T07:43:21;1.63;;;1.27;;
19396;SDS011;9834;48.076;11.878;2023-04-25T07:45:48;1.10;;;1.03;;
19396;SDS011;9834;48.076;11.878;2023-04-25T07:48:20;2.17;;;1.50;;
19396;SDS011;9834;48.076;11.878;2023-04-25T07:50:47;1.07;;;1.00;;
19396;SDS011;9834;48.076;11.878;2023-04-25T07:53:15;1.13;;;1.00;;
19396;SDS011;9834;48.076;11.878;2023-04-25T07:55:46;0.83;;;0.83;;
19396;SDS011;9834;48.076;11.878;2023-04-25T07:58:13;1.47;;;1.03;;
19396;SDS011;9834;48.076;11.878;2023-04-25T08:00:41;1.33;;;1.03;;
19396;SDS011;9834;48.076;11.878;2023-04-25T08:03:09;1.40;;;1.10;;
19396;SDS011;9834;48.076;11.878;2023-04-25T08:05:41;0.87;;;0.77;;
19396;SDS011;9834;48.076;11.878;2023-04-25T08:08:12;1.80;;;1.10;;
19396;SDS011;9834;48.076;11.878;2023-04-25T08:10:42;1.23;;;0.80;;
19396;SDS011;9834;48.076;11.878;2023-04-25T08:13:12;2.40;;;1.30;;
19396;SDS011;9834;48.076;11.878;2023-04-25T08:15:43;1.23;;;1.13;;
19396;SDS011;9834;48.076;11.878;2023-04-25T08:18:11;4.93;;;1.30;;
19396;SDS011;9834;48.076;11.878;2023-04-25T08:20:40;4.07;;;1.13;;
19396;SDS011;9834;48.076;11.878;2023-04-25T08:23:16;5.27;;;1.27;;
19396;SDS011;9834;48.076;11.878;2023-04-25T08:25:43;1.50;;;0.87;;
19396;SDS011;9834;48.076;11.878;2023-04-25T08:28:13;1.00;;;0.90;;
19396;SDS011;9834;48.076;11.878;2023-04-25T08:30:47;1.23;;;1.03;;
19396;SDS011;9834;48.076;11.878;2023-04-25T08:33:15;0.87;;;0.83;;
19396;SDS011;9834;48.076;11.878;2023-04-25T08:35:44;1.90;;;1.10;;
19396;SDS011;9834;48.076;11.878;2023-04-25T08:38:12;3.23;;;1.33;;
19396;SDS011;9834;48.076;11.878;2023-04-25T08:40:39;0.73;;;0.73;;
19396;SDS011;9834;48.076;11.878;2023-04-25T08:43:07;2.17;;;1.23;;
19396;SDS011;9834;48.076;11.878;2023-04-25T08:45:38;1.50;;;1.17;;
19396;SDS011;9834;48.076;11.878;2023-04-25T08:48:07;0.83;;;0.83;;
19396;SDS011;9834;48.076;11.878;2023-04-25T08:50:38;0.97;;;0.93;;
19396;SDS011;9834;48.076;11.878;2023-04-25T08:53:13;1.20;;;0.93;;
19396;SDS011;9834;48.076;11.878;2023-04-25T08:55:46;0.97;;;0.93;;
19396;SDS011;9834;48.076;11.878;2023-04-25T08:58:16;1.33;;;1.00;;
19396;SDS011;9834;48.076;11.878;2023-04-25T09:00:49;1.13;;;1.03;;
19396;SDS011;9834;48.076;11.878;2023-04-25T09:03:18;0.73;;;0.73;;
19396;SDS011;9834;48.076;11.878;2023-04-25T09:05:45;1.30;;;1.00;;
19396;SDS011;9834;48.076;11.878;2023-04-25T09:08:14;0.83;;;0.80;;
19396;SDS011;9834;48.076;11.878;2023-04-25T09:10:42;1.40;;;1.07;;
19396;SDS011;9834;48.076;11.878;2023-04-25T09:13:12;1.03;;;0.80;;
19396;SDS011;9834;48.076;11.878;2023-04-25T09:15:47;1.60;;;1.20;;
19396;SDS011;9834;48.076;11.878;2023-04-25T09:18:23;0.90;;;0.90;;
19396;SDS011;9834;48.076;11.878;2023-04-25T09:20:53;2.70;;;1.10;;
19396;SDS011;9834;48.076;11.878;2023-04-25T09:23:23;0.83;;;0.83;;
19396;SDS011;9834;48.076;11.878;2023-04-25T09:25:51;1.20;;;1.10;;
19396;SDS011;9834;48.076;11.878;2023-04-25T09:28:23;1.13;;;0.93;;
19396;SDS011;9834;48.076;11.878;2023-04-25T09:30:54;1.20;;;1.10;;
19396;SDS011;9834;48.076;11.878;2023-04-25T09:33:27;2.00;;;1.17;;
19396;SDS011;9834;48.076;11.878;2023-04-25T09:36:01;1.17;;;1.17;;
19396;SDS011;9834;48.076;11.878;2023-04-25T09:38:32;0.77;;;0.77;;
19396;SDS011;9834;48.076;11.878;2023-04-25T09:41:11;1.07;;;1.03;;
19396;SDS011;9834;48.076;11.878;2023-04-25T09:43:39;0.93;;;0.93;;
19396;SDS011;9834;48.076;11.878;2023-04-25T09:46:14;0.90;;;0.87;;
19396;SDS011;9834;48.076;11.878;2023-04-25T09:48:46;1.13;;;1.03;;
19396;SDS011;9834;48.076;11.878;2023-04-25T09:51:16;0.80;;;0.80;;
19396;SDS011;9834;48.076;11.878;2023-04-25T09:53:50;1.10;;;1.00;;
19396;SDS011;9834;48.076;11.878;2023-04-25T09:56:18;1.33;;;0.97;;
19396;SDS011;9834;48.076;11.878;2023-04-25T09:58:51;0.87;;;0.70;;
19396;SDS011;9834;48.076;11.878;2023-04-25T10:01:21;5.30;;;1.53;;
19396;SDS011;9834;48.076;11.878;2023-04-25T10:03:54;0.60;;;0.60;;
19396;SDS011;9834;48.076;11.878;2023-04-25T10:06:24;0.50;;;0.50;;
19396;SDS011;9834;48.076;11.878;2023-04-25T10:09:05;1.73;;;1.10;;
19396;SDS011;9834;48.076;11.878;2023-04-25T10:11:34;0.67;;;0.57;;
19396;SDS011;9834;48.076;11.878;2023-04-25T10:14:03;1.00;;;0.90;;
19396;SDS011;9834;48.076;11.878;2023-04-25T10:16:41;0.60;;;0.60;;
19396;SDS011;9834;48.076;11.878;2023-04-25T10:19:09;0.50;;;0.50;;
19396;SDS011;9834;48.076;11.878;2023-04-25T10:21:40;1.07;;;0.97;;
19396;SDS011;9834;48.076;11.878;2023-04-25T10:24:18;1.83;;;1.10;;
19396;SDS011;9834;48.076;11.878;2023-04-25T10:26:47;1.20;;;0.73;;
19396;SDS011;9834;48.076;11.878;2023-04-25T10:29:26;2.13;;;1.03;;
19396;SDS011;9834;48.076;11.878;2023-04-25T10:31:54;1.47;;;0.93;;
19396;SDS011;9834;48.076;11.878;2023-04-25T10:34:37;0.70;;;0.70;;
19396;SDS011;9834;48.076;11.878;2023-04-25T10:37:08;0.70;;;0.70;;
19396;SDS011;9834;48.076;11.878;2023-04-25T10:39:39;0.87;;;0.83;;
19396;SDS011;9834;48.076;11.878;2023-04-25T10:42:08;1.10;;;0.97;;
19396;SDS011;9834;48.076;11.878;2023-04-25T10:44:36;2.27;;;0.70;;
19396;SDS011;9834;48.076;11.878;2023-04-25T10:47:06;0.73;;;0.73;;
19396;SDS011;9834;48.076;11.878;2023-04-25T10:49:37;1.33;;;0.90;;
19396;SDS011;9834;48.076;11.878;2023-04-25T10:52:17;2.40;;;1.00;;
19396;SDS011;9834;48.076;11.878;2023-04-25T10:54:51;0.83;;;0.83;;
19396;SDS011;9834;48.076;11.878;2023-04-25T10:57:27;1.60;;;0.87;;
19396;SDS011;9834;48.076;11.878;2023-04-25T11:00:00;0.80;;;0.70;;
19396;SDS011;9834;48.076;11.878;2023-04-25T11:02:31;0.63;;;0.63;;
19396;SDS011;9834;48.076;11.878;2023-04-25T11:05:03;3.20;;;1.00;;
19396;SDS011;9834;48.076;11.878;2023-04-25T11:07:34;1.43;;;0.83;;
19396;SDS011;9834;48.076;11.878;2023-04-25T11:10:08;1.03;;;0.90;;
19396;SDS011;9834;48.076;11.878;2023-04-25T11:12:36;0.77;;;0.77;;
19396;SDS011;9834;48.076;11.878;2023-04-25T11:15:04;0.60;;;0.60;;
19396;SDS011;9834;48.076;11.878;2023-04-25T11:17:33;1.33;;;0.93;;
19396;SDS011;9834;48.076;11.878;2023-04-25T11:20:00;0.73;;;0.70;;
19396;SDS011;9834;48.076;11.878;2023-04-25T11:22:31;0.83;;;0.63;;
19396;SDS011;9834;48.076;11.878;2023-04-25T11:25:04;2.17;;;0.60;;
19396;SDS011;9834;48.076;11.878;2023-04-25T11:27:37;2.33;;;0.97;;
19396;SDS011;9834;48.076;11.878;2023-04-25T11:30:09;1.37;;;1.00;;
19396;SDS011;9834;48.076;11.878;2023-04-25T11:32:39;0.60;;;0.60;;
19396;SDS011;9834;48.076;11.878;2023-04-25T11:35:10;0.60;;;0.60;;
19396;SDS011;9834;48.076;11.878;2023-04-25T11:37:38;0.60;;;0.60;;
19396;SDS011;9834;48.076;11.878;2023-04-25T11:40:10;1.17;;;0.87;;
19396;SDS011;9834;48.076;11.878;2023-04-25T11:42:37;0.60;;;0.60;;
19396;SDS011;9834;48.076;11.878;2023-04-25T11:45:09;1.23;;;1.13;;
19396;SDS011;9834;48.076;11.878;2023-04-25T11:47:37;3.47;;;1.27;;
19396;SDS011;9834;48.076;11.878;2023-04-25T11:50:06;2.90;;;1.47;;
19396;SDS011;9834;48.076;11.878;2023-04-25T11:52:35;1.17;;;1.07;;
19396;SDS011;9834;48.076;11.878;2023-04-25T11:55:07;1.27;;;1.17;;
19396;SDS011;9834;48.076;11.878;2023-04-25T11:57:42;0.80;;;0.80;;
19396;SDS011;9834;48.076;11.878;2023-04-25T12:00:11;1.17;;;1.00;;
19396;SDS011;9834;48.076;11.878;2023-04-25T12:02:40;1.10;;;1.00;;
19396;SDS011;9834;48.076;11.878;2023-04-25T12:05:08;5.03;;;0.70;;
19396;SDS011;9834;48.076;11.878;2023-04-25T12:07:37;0.63;;;0.63;;
19396;SDS011;9834;48.076;11.878;2023-04-25T12:10:07;1.23;;;0.53;;
19396;SDS011;9834;48.076;11.878;2023-04-25T12:12:38;1.37;;;1.27;;
19396;SDS011;9834;48.076;11.878;2023-04-25T12:15:09;2.10;;;1.40;;
19396;SDS011;9834;48.076;11.878;2023-04-25T12:17:40;1.67;;;1.20;;
19396;SDS011;9834;48.076;11.878;2023-04-25T12:20:09;1.33;;;1.00;;
19396;SDS011;9834;48.076;11.878;2023-04-25T12:22:40;1.23;;;0.97;;
19396;SDS011;9834;48.076;11.878;2023-04-25T12:25:11;0.97;;;0.90;;
19396;SDS011;9834;48.076;11.878;2023-04-25T12:28:08;0.80;;;0.80;;
19396;SDS011;9834;48.076;11.878;2023-04-25T12:30:51;1.83;;;0.90;;
19396;SDS011;9834;48.076;11.878;2023-04-25T12:33:20;1.27;;;1.03;;
19396;SDS011;9834;48.076;11.878;2023-04-25T12:35:48;0.80;;;0.80;;
19396;SDS011;9834;48.076;11.878;2023-04-25T12:38:20;1.70;;;0.57;;
19396;SDS011;9834;48.076;11.878;2023-04-25T12:40:53;0.83;;;0.83;;
19396;SDS011;9834;48.076;11.878;2023-04-25T12:43:21;0.80;;;0.80;;
19396;SDS011;9834;48.076;11.878;2023-04-25T12:45:49;0.93;;;0.87;;
19396;SDS011;9834;48.076;11.878;2023-04-25T12:48:16;4.00;;;1.23;;
19396;SDS011;9834;48.076;11.878;2023-04-25T12:50:44;1.17;;;1.00;;
19396;SDS011;9834;48.076;11.878;2023-04-25T12:53:14;1.43;;;0.97;;
19396;SDS011;9834;48.076;11.878;2023-04-25T12:55:42;1.63;;;1.27;;
19396;SDS011;9834;48.076;11.878;2023-04-25T12:58:12;1.40;;;1.30;;
19396;SDS011;9834;48.076;11.878;2023-04-25T13:00:43;1.33;;;1.23;;
19396;SDS011;9834;48.076;11.878;2023-04-25T13:03:11;1.67;;;1.57;;
19396;SDS011;9834;48.076;11.878;2023-04-25T13:05:39;1.60;;;1.37;;
19396;SDS011;9834;48.076;11.878;2023-04-25T13:08:12;1.17;;;1.07;;
19396;SDS011;9834;48.076;11.878;2023-04-25T13:10:42;1.00;;;0.87;;
19396;SDS011;9834;48.076;11.878;2023-04-25T13:13:10;1.20;;;1.10;;
19396;SDS011;9834;48.076;11.878;2023-04-25T13:15:38;0.87;;;0.83;;
19396;SDS011;9834;48.076;11.878;2023-04-25T13:18:06;1.10;;;0.93;;
19396;SDS011;9834;48.076;11.878;2023-04-25T13:20:37;1.87;;;0.90;;
19396;SDS011;9834;48.076;11.878;2023-04-25T13:23:05;0.47;;;0.47;;
19396;SDS011;9834;48.076;11.878;2023-04-25T13:25:33;0.60;;;0.60;;
19396;SDS011;9834;48.076;11.878;2023-04-25T13:28:01;0.43;;;0.43;;
19396;SDS011;9834;48.076;11.878;2023-04-25T13:30:30;0.97;;;0.70;;
19396;SDS011;9834;48.076;11.878;2023-04-25T13:32:57;0.60;;;0.60;;
19396;SDS011;9834;48.076;11.878;2023-04-25T13:35:31;1.00;;;0.90;;
19396;SDS011;9834;48.076;11.878;2023-04-25T13:38:00;0.90;;;0.83;;
19396;SDS011;9834;48.076;11.878;2023-04-25T13:40:30;0.73;;;0.63;;
19396;SDS011;9834;48.076;11.878;2023-04-25T13:42:58;5.93;;;0.90;;
19396;SDS011;9834;48.076;11.878;2023-04-25T13:45:26;1.60;;;0.80;;
19396;SDS011;9834;48.076;11.878;2023-04-25T13:47:55;1.00;;;0.83;;
19396;SDS011;9834;48.076;11.878;2023-04-25T13:50:22;0.70;;;0.70;;
19396;SDS011;9834;48.076;11.878;2023-04-25T13:52:50;0.70;;;0.70;;
19396;SDS011;9834;48.076;11.878;2023-04-25T13:55:18;0.60;;;0.60;;
19396;SDS011;9834;48.076;11.878;2023-04-25T13:57:45;1.00;;;0.90;;
19396;SDS011;9834;48.076;11.878;2023-04-25T14:00:13;5.20;;;1.10;;
19396;SDS011;9834;48.076;11.878;2023-04-25T14:02:43;1.63;;;0.80;;
19396;SDS011;9834;48.076;11.878;2023-04-25T14:05:12;1.23;;;0.67;;
19396;SDS011;9834;48.076;11.878;2023-04-25T14:07:39;0.63;;;0.43;;
19396;SDS011;9834;48.076;11.878;2023-04-25T14:10:07;3.83;;;0.67;;
19396;SDS011;9834;48.076;11.878;2023-04-25T14:12:35;0.50;;;0.50;;
19396;SDS011;9834;48.076;11.878;2023-04-25T14:15:03;0.80;;;0.80;;
19396;SDS011;9834;48.076;11.878;2023-04-25T14:17:31;4.13;;;1.10;;
19396;SDS011;9834;48.076;11.878;2023-04-25T14:19:58;0.90;;;0.90;;
19396;SDS011;9834;48.076;11.878;2023-04-25T14:22:27;1.73;;;0.80;;
19396;SDS011;9834;48.076;11.878;2023-04-25T14:24:55;0.90;;;0.80;;
19396;SDS011;9834;48.076;11.878;2023-04-25T14:27:23;0.97;;;0.87;;
19396;SDS011;9834;48.076;11.878;2023-04-25T14:29:51;0.50;;;0.50;;
19396;SDS011;9834;48.076;11.878;2023-04-25T14:32:19;0.50;;;0.50;;
19396;SDS011;9834;48.076;11.878;2023-04-25T14:34:48;0.70;;;0.70;;
19396;SDS011;9834;48.076;11.878;2023-04-25T14:37:16;0.70;;;0.70;;
19396;SDS011;9834;48.076;11.878;2023-04-25T14:39:48;0.87;;;0.80;;
19396;SDS011;9834;48.076;11.878;2023-04-25T14:42:16;0.43;;;0.43;;
19396;SDS011;9834;48.076;11.878;2023-04-25T14:44:44;2.63;;;1.03;;
19396;SDS011;9834;48.076;11.878;2023-04-25T14:47:12;0.50;;;0.50;;
19396;SDS011;9834;48.076;11.878;2023-04-25T14:49:40;1.07;;;0.77;;
19396;SDS011;9834;48.076;11.878;2023-04-25T14:52:07;2.47;;;0.60;;
19396;SDS011;9834;48.076;11.878;2023-04-25T14:54:38;0.97;;;0.67;;
19396;SDS011;9834;48.076;11.878;2023-04-25T14:57:07;0.67;;;0.67;;
19396;SDS011;9834;48.076;11.878;2023-04-25T14:59:34;0.53;;;0.53;;
19396;SDS011;9834;48.076;11.878;2023-04-25T15:02:07;0.50;;;0.50;;
19396;SDS011;9834;48.076;11.878;2023-04-25T15:04:35;0.63;;;0.63;;
19396;SDS011;9834;48.076;11.878;2023-04-25T15:07:03;0.70;;;0.70;;
19396;SDS011;9834;48.076;11.878;2023-04-25T15:09:30;1.13;;;0.83;;
19396;SDS011;9834;48.076;11.878;2023-04-25T15:12:00;2.03;;;0.93;;
19396;SDS011;9834;48.076;11.878;2023-04-25T15:14:31;1.40;;;1.00;;
19396;SDS011;9834;48.076;11.878;2023-04-25T15:17:00;1.93;;;1.50;;